Flight Track Log - Related Links

Times and Time Zones

All times are in EDT time to prevent confusion due to time zone crossing. See the EJA922 flight status page for this flight to view local times or setup timezone preferences in your user account.

Time Position Orientation Groundspeed Altitude Reporting Facility
EDT Latitude Longitude Course Direction KTS km/h feet Rate Location/Type
Fri 09:13:20 AM 32.3667 -64.6833 270° West 275 509 2.000  Level New York Oceanic (ODAPS)
Fri 09:13:51 AM 32.3667 -64.6833 270° West 300 555 2.000  Level New York Oceanic (ODAPS)
Fri 09:19:00 AM 32.3685 -65.3984 270° West 275 509 2.000 2.687 Level FlightAware Transoceanic
Fri 09:19:26 AM 32.3667 -65.0833 270° West 479 887 17.000  Climbing New York Oceanic (ODAPS)
Fri 09:20:00 AM 32.3691 -65.5334 270° West 300 555 2.000 -9.574 Descending FlightAware Transoceanic
Fri 09:21:00 AM 32.3695 -65.6834 270° West 300 555 2.000  Level FlightAware Transoceanic
Fri 09:22:00 AM 32.3698 -65.8334 270° West 300 555 2.000  Level FlightAware Transoceanic
Fri 09:23:00 AM 32.3699 -65.9834 270° West 300 555 2.000  Level FlightAware Transoceanic
Fri 09:24:00 AM 32.3698 -66.1334 270° West 300 555 2.000 7.500 Level FlightAware Transoceanic
Fri 09:25:00 AM 32.3697 -66.1859 270° West 479 887 17.000 7.500 Climbing FlightAware Transoceanic
Fri 09:26:00 AM 32.3694 -66.3435 270° West 479 887 17.000  Level FlightAware Transoceanic
Fri 09:27:00 AM 32.3689 -66.5010 270° West 479 887 17.000  Level FlightAware Transoceanic
Fri 09:28:00 AM 32.3681 -66.6585 270° West 479 887 17.000  Level FlightAware Transoceanic
Fri 09:29:00 AM 32.3672 -66.8160 270° West 479 887 17.000  Level FlightAware Transoceanic
Fri 09:30:00 AM 32.3661 -66.9735 269° West 479 887 17.000  Level FlightAware Transoceanic
Fri 09:31:00 AM 32.3647 -67.1310 269° West 479 887 17.000  Level FlightAware Transoceanic
Fri 09:32:00 AM 32.3632 -67.2885 269° West 479 887 17.000  Level FlightAware Transoceanic
Fri 09:33:00 AM 32.3615 -67.4460 269° West 479 887 17.000 10.857 Level FlightAware Transoceanic
Fri 09:33:45 AM 32.3667 -65.0833 270° West 417 772 36.000  Climbing New York Oceanic (ODAPS)
Fri 09:34:00 AM 32.3596 -67.6035 269° West 479 887 17.000 -15.200 Descending FlightAware Transoceanic
Fri 09:35:00 AM 32.3575 -67.7609 269° West 479 887 17.000  Level FlightAware Transoceanic
Fri 09:36:00 AM 32.3552 -67.9184 269° West 479 887 17.000 16.216 Level FlightAware Transoceanic
Fri 09:36:14 AM 32.3667 -65.0833 270° West 417 772 37.000  Climbing New York Oceanic (ODAPS)
Fri 09:37:00 AM 32.3527 -68.0759 269° West 479 887 17.000 -11.321 Descending FlightAware Transoceanic
Fri 09:38:00 AM 32.3500 -68.2333 245° Southwest 479 887 17.000  Level FlightAware Transoceanic
Fri 09:39:00 AM 32.2910 -68.3855 245° Southwest 479 887 17.000 9.500 Level FlightAware Transoceanic
Fri 09:40:00 AM 32.3523 -68.0964 269° West 417 772 36.000 9.500 Climbing FlightAware Transoceanic
Fri 09:41:00 AM 32.3500 -68.2333 245° Southwest 417 772 36.000 500 Level FlightAware Transoceanic
Fri 09:42:00 AM 32.2929 -68.3804 245° Southwest 417 772 37.000 500 Climbing FlightAware Transoceanic
Fri 09:43:00 AM 32.2357 -68.5274 245° Southwest 417 772 37.000  Level FlightAware Transoceanic
Fri 09:44:00 AM 32.1783 -68.6741 245° Southwest 417 772 37.000  Level FlightAware Transoceanic
Fri 09:45:00 AM 32.1208 -68.8207 245° Southwest 417 772 37.000  Level FlightAware Transoceanic
Fri 09:46:00 AM 32.0630 -68.9670 245° Southwest 417 772 37.000  Level FlightAware Transoceanic
Fri 09:47:00 AM 32.0051 -69.1132 245° Southwest 417 772 37.000  Level FlightAware Transoceanic
Fri 09:48:00 AM 31.9471 -69.2592 245° Southwest 417 772 37.000  Level FlightAware Transoceanic
Fri 09:49:00 AM 31.8888 -69.4051 245° Southwest 417 772 37.000 2.727 Level FlightAware Transoceanic
Fri 09:49:06 AM 32.3500 -68.2333 245° Southwest 491 909 40.000  Climbing New York Oceanic (ODAPS)
Fri 09:50:00 AM 31.8304 -69.5507 245° Southwest 417 772 37.000 -1.579 Descending FlightAware Transoceanic
Fri 09:51:00 AM 31.7719 -69.6962 245° Southwest 417 772 37.000  Level FlightAware Transoceanic
Fri 09:52:00 AM 31.7131 -69.8414 245° Southwest 417 772 37.000  Level FlightAware Transoceanic
Fri 09:53:00 AM 31.6542 -69.9865 244° Southwest 417 772 37.000  Level FlightAware Transoceanic
Fri 09:54:00 AM 31.5687 -70.1963 244° Southwest 417 772 37.000 1.500 Level FlightAware Transoceanic
Fri 09:55:00 AM 31.4766 -70.4206 244° Southwest 491 909 40.000 1.500 Climbing FlightAware Transoceanic
Fri 09:56:00 AM 31.4170 -70.5650 244° Southwest 491 909 40.000  Level FlightAware Transoceanic
Fri 09:57:00 AM 31.3573 -70.7092 244° Southwest 491 909 40.000  Level FlightAware Transoceanic
Fri 09:58:00 AM 31.2974 -70.8531 244° Southwest 491 909 40.000  Level FlightAware Transoceanic
Fri 09:59:00 AM 31.2374 -70.9969 244° Southwest 491 909 40.000  Level FlightAware Transoceanic
Fri 10:00:00 AM 31.1772 -71.1405 244° Southwest 491 909 40.000  Level FlightAware Transoceanic
Fri 10:01:00 AM 31.1169 -71.2840 244° Southwest 491 909 40.000  Level FlightAware Transoceanic
Fri 10:02:00 AM 31.0564 -71.4272 244° Southwest 491 909 40.000  Level FlightAware Transoceanic
Fri 10:03:00 AM 30.9957 -71.5703 244° Southwest 491 909 40.000  Level FlightAware Transoceanic
Fri 10:04:00 AM 30.9349 -71.7132 244° Southwest 491 909 40.000  Level FlightAware Transoceanic
Fri 10:05:00 AM 30.8739 -71.8559 243° Southwest 491 909 40.000  Level FlightAware Transoceanic
Fri 10:06:00 AM 30.8128 -71.9984 243° Southwest 491 909 40.000  Level FlightAware Transoceanic
Fri 10:07:00 AM 30.7515 -72.1407 243° Southwest 491 909 40.000  Level FlightAware Transoceanic
Fri 10:08:00 AM 30.6900 -72.2829 243° Southwest 491 909 40.000  Level FlightAware Transoceanic
Fri 10:09:00 AM 30.6284 -72.4249 243° Southwest 491 909 40.000  Level FlightAware Transoceanic
Fri 10:10:00 AM 30.5667 -72.5667 243° Southwest 491 909 40.000  Level FlightAware Transoceanic
Fri 10:11:00 AM 30.5049 -72.7071 243° Southwest 491 909 40.000  Level FlightAware Transoceanic
Fri 10:12:00 AM 30.4430 -72.8473 243° Southwest 491 909 40.000  Level FlightAware Transoceanic
Fri 10:13:00 AM 30.3809 -72.9873 243° Southwest 491 909 40.000  Level FlightAware Transoceanic
Fri 10:14:00 AM 30.3187 -73.1272 243° Southwest 491 909 40.000  Level FlightAware Transoceanic
Fri 10:15:00 AM 30.2564 -73.2669 243° Southwest 491 909 40.000  Level FlightAware Transoceanic
Fri 10:16:00 AM 30.1939 -73.4064 243° Southwest 491 909 40.000  Level FlightAware Transoceanic
Fri 10:17:00 AM 30.1312 -73.5457 242° Southwest 491 909 40.000  Level FlightAware Transoceanic
Fri 10:18:00 AM 30.0684 -73.6849 242° Southwest 491 909 40.000  Level FlightAware Transoceanic
Fri 10:19:00 AM 30.0055 -73.8238 242° Southwest 491 909 40.000  Level FlightAware Transoceanic
Fri 10:20:00 AM 29.9424 -73.9626 242° Southwest 491 909 40.000  Level FlightAware Transoceanic
Fri 10:21:00 AM 29.8791 -74.1012 242° Southwest 491 909 40.000  Level FlightAware Transoceanic
Fri 10:22:00 AM 29.8158 -74.2397 242° Southwest 491 909 40.000  Level FlightAware Transoceanic
Fri 10:23:00 AM 29.7522 -74.3780 242° Southwest 491 909 40.000  Level FlightAware Transoceanic
Fri 10:24:00 AM 29.6886 -74.5161 242° Southwest 491 909 40.000  Level FlightAware Transoceanic
Fri 10:25:00 AM 29.6248 -74.6540 242° Southwest 491 909 40.000  Level FlightAware Transoceanic
Fri 10:26:00 AM 29.5608 -74.7917 242° Southwest 491 909 40.000  Level FlightAware Transoceanic
Fri 10:27:00 AM 29.4967 -74.9293 242° Southwest 491 909 40.000  Level FlightAware Transoceanic
Fri 10:28:00 AM 29.4325 -75.0667 242° Southwest 491 909 40.000  Level FlightAware Transoceanic
Fri 10:29:00 AM 29.3681 -75.2039 242° Southwest 491 909 40.000  Level FlightAware Transoceanic
Fri 10:30:00 AM 29.3036 -75.3410 242° Southwest 491 909 40.000  Level FlightAware Transoceanic
Fri 10:31:00 AM 29.2389 -75.4779 242° Southwest 491 909 40.000  Level FlightAware Transoceanic
Fri 10:32:00 AM 29.1741 -75.6146 241° Southwest 491 909 40.000  Level FlightAware Transoceanic
Fri 10:33:00 AM 29.1092 -75.7511 241° Southwest 491 909 40.000  Level FlightAware Transoceanic
Fri 10:34:00 AM 29.0441 -75.8875 241° Southwest 491 909 40.000  Level FlightAware Transoceanic
Fri 10:35:00 AM 28.9789 -76.0236 241° Southwest 491 909 40.000  Level FlightAware Transoceanic
Fri 10:36:00 AM 28.9135 -76.1597 241° Southwest 491 909 40.000  Level FlightAware Transoceanic
Fri 10:36:34 AM 28.8814 -76.2114 240° Southwest 491 909 40.000  Level Miami Center
Fri 10:37:00 AM 28.8480 -76.2955 241° Southwest 491 909 40.000  Level FlightAware Transoceanic
Fri 10:37:34 AM 28.8153 -76.3492 241° Southwest 499 924 40.000  Level Miami Center
Fri 10:38:00 AM 28.7824 -76.4312 241° Southwest 491 909 40.000  Level FlightAware Transoceanic
Fri 10:38:34 AM 28.7467 -76.4867 240° Southwest 499 924 40.000 -64 Level Miami Center
Fri 10:39:00 AM 28.7031 -76.5294 227° Southwest  Level FlightAware Approximate
Fri 10:39:34 AM 28.6822 -76.6194 241° Southwest 499 924 39.900  Level Miami Center
Fri 10:40:00 AM 28.6237 -76.6275 227° Southwest  Level FlightAware Approximate
Fri 10:40:34 AM 28.6197 -76.7519 242° Southwest 489 906 41.400  Level Miami Center
Fri 10:41:00 AM 28.6557 -76.6358 240° Southwest  Level FlightAware Approximate
Fri 10:41:34 AM 28.5511 -76.8844 240° Southwest 480 888 42.900  Level Miami Center
Fri 10:42:00 AM 28.5963 -76.7507 240° Southwest  Level FlightAware Approximate
Fri 10:42:34 AM 28.5175 -77.0192 254° West 468 867 43.000  Level Miami Center
Fri 10:43:34 AM 28.4881 -77.1586 257° West 454 840 42.900  Descending Miami Center
Fri 10:44:34 AM 28.4586 -77.3025 257° West 461 855 43.000 50 Climbing Miami Center
Fri 10:45:34 AM 28.4308 -77.4464 258° West 471 872 43.000  Level Miami Center
Fri 10:46:34 AM 28.3947 -77.5950 255° West 476 882 43.000 -50 Level Miami Center
Fri 10:47:34 AM 28.3708 -77.7411 260° West 476 882 42.900 -550 Descending Miami Center
Fri 10:48:34 AM 28.3344 -77.8919 255° West 482 893 41.900 -1.450 Descending Miami Center
Fri 10:49:34 AM 28.3042 -78.0425 257° West 487 901 40.000 -2.200 Descending Miami Center
Fri 10:50:34 AM 28.2714 -78.1861 256° West 487 901 37.500 -2.800 Descending Miami Center
Fri 10:51:34 AM 28.2472 -78.3342 260° West 487 901 34.400 -2.850 Descending Miami Center
Fri 10:52:34 AM 28.2100 -78.4797 254° West 487 901 31.800 -2.000 Descending Miami Center
Fri 10:53:34 AM 28.1792 -78.6256 257° West 487 901 30.400 -1.400 Descending Miami Center
Fri 10:54:34 AM 28.1522 -78.7781 259° West 487 901 29.000 -1.450 Descending Miami Center
Fri 10:55:34 AM 28.1186 -78.9283 256° West 492 911 27.500 -1.450 Descending Miami Center
Fri 10:56:34 AM 28.0808 -79.0806 254° West 492 911 26.100 -1.450 Descending Miami Center
Fri 10:57:34 AM 28.0411 -79.2256 253° West 492 911 24.600 -1.050 Descending Miami Center
Fri 10:58:34 AM 27.9456 -79.3247 223° Southwest 463 858 24.000 -750 Descending Miami Center
Fri 10:59:34 AM 27.8153 -79.3689 197° South 431 798 23.100 -1.650 Descending Miami Center
Fri 11:00:34 AM 27.7033 -79.4461 211° Southwest 461 855 20.700 -2.300 Descending Miami Center
Fri 11:01:34 AM 27.6142 -79.5169 215° Southwest 456 845 18.500 -2.100 Descending Miami Center
Fri 11:02:34 AM 27.5233 -79.5825 213° Southwest 421 779 16.500 -2.000 Descending Miami Center
Fri 11:03:34 AM 27.4342 -79.6483 213° Southwest 367 679 14.500 -1.800 Descending Miami Center
Fri 11:04:34 AM 27.3642 -79.7053 216° Southwest 332 615 12.900 -1.600 Descending Miami Center
Fri 11:05:34 AM 27.2942 -79.7594 215° Southwest 314 581 11.300 -1.550 Descending Miami Center
Fri 11:06:34 AM 27.2328 -79.8047 213° Southwest 309 573 9.800 -1.500 Descending Miami Center
Fri 11:07:34 AM 27.1669 -79.8544 214° Southwest 301 557 8.300 -1.000 Descending Miami Center
Fri 11:08:34 AM 27.0931 -79.9014 209° Southwest 293 542 7.800 -950 Descending Miami Center
Fri 11:09:34 AM 27.0233 -79.9417 207° Southwest 282 523 6.400 -1.450 Descending Miami Center
Fri 11:10:34 AM 26.9556 -79.9842 209° Southwest 282 523 4.900 -1.250 Descending Miami Center
Fri 11:11:34 AM 26.9022 -80.0292 217° Southwest 275 509 3.900 -500 Descending Miami Center
Fri 11:12:34 AM 26.8469 -80.0744 216° Southwest 264 489 3.900 -650 Level Miami Center
Fri 11:13:34 AM 26.7958 -80.1172 217° Southwest 249 462 2.600 -1.300 Descending Miami Center
Fri 11:15:00 AM 26.6832 -80.0956 270° West  Level Estimated
Fri 11:22:00 AM 26.6832 -80.0956 110° East  Level Estimated
Fri 11:23:00 AM 26.6832 -80.0956 110° East  Level Estimated
Fri 11:24:00 AM 26.6832 -80.0956 110° East  Level Estimated

Login

Don't have an account? Register now (free) for customized features, flight alerts, and more!